sensor_id;sensor_type;location;lat;lon;timestamp;temperature;humidity
11764;DHT22;5939;56.522;14.950;2023-03-12T00:01:19;0.40;99.90
11764;DHT22;5939;56.522;14.950;2023-03-12T00:03:46;0.30;99.90
11764;DHT22;5939;56.522;14.950;2023-03-12T00:06:12;0.30;99.90
11764;DHT22;5939;56.522;14.950;2023-03-12T00:08:38;0.30;99.90
11764;DHT22;5939;56.522;14.950;2023-03-12T00:11:09;0.30;99.90
11764;DHT22;5939;56.522;14.950;2023-03-12T00:13:36;0.30;99.90
11764;DHT22;5939;56.522;14.950;2023-03-12T00:16:14;0.30;99.90
11764;DHT22;5939;56.522;14.950;2023-03-12T00:18:41;0.30;99.90
11764;DHT22;5939;56.522;14.950;2023-03-12T00:21:07;0.30;99.90
11764;DHT22;5939;56.522;14.950;2023-03-12T00:23:33;0.20;99.90
11764;DHT22;5939;56.522;14.950;2023-03-12T00:26:05;0.20;99.90
11764;DHT22;5939;56.522;14.950;2023-03-12T00:28:31;0.20;99.90
11764;DHT22;5939;56.522;14.950;2023-03-12T00:30:57;0.20;99.90
11764;DHT22;5939;56.522;14.950;2023-03-12T00:33:27;0.20;99.90
11764;DHT22;5939;56.522;14.950;2023-03-12T00:35:54;0.20;99.90
11764;DHT22;5939;56.522;14.950;2023-03-12T00:38:20;0.20;99.90
11764;DHT22;5939;56.522;14.950;2023-03-12T00:40:46;0.10;99.90
11764;DHT22;5939;56.522;14.950;2023-03-12T00:43:12;0.10;99.90
11764;DHT22;5939;56.522;14.950;2023-03-12T00:45:38;0.10;99.90
11764;DHT22;5939;56.522;14.950;2023-03-12T00:48:04;0.10;99.90
11764;DHT22;5939;56.522;14.950;2023-03-12T00:50:29;0.10;99.90
11764;DHT22;5939;56.522;14.950;2023-03-12T00:52:55;0.10;99.90
11764;DHT22;5939;56.522;14.950;2023-03-12T00:55:21;0.10;99.90
11764;DHT22;5939;56.522;14.950;2023-03-12T00:57:47;0.10;99.90
11764;DHT22;5939;56.522;14.950;2023-03-12T01:00:13;0.10;99.90
11764;DHT22;5939;56.522;14.950;2023-03-12T01:02:39;0.00;99.90
11764;DHT22;5939;56.522;14.950;2023-03-12T01:05:07;0.00;99.90
11764;DHT22;5939;56.522;14.950;2023-03-12T01:07:34;0.00;99.90
11764;DHT22;5939;56.522;14.950;2023-03-12T01:10:00;0.00;99.90
11764;DHT22;5939;56.522;14.950;2023-03-12T01:12:26;0.00;99.90
11764;DHT22;5939;56.522;14.950;2023-03-12T01:14:52;0.00;99.90
11764;DHT22;5939;56.522;14.950;2023-03-12T01:17:17;0.00;99.90
11764;DHT22;5939;56.522;14.950;2023-03-12T01:19:43;0.00;99.90
11764;DHT22;5939;56.522;14.950;2023-03-12T01:22:09;-0.10;99.90
11764;DHT22;5939;56.522;14.950;2023-03-12T01:24:34;-0.10;99.90
11764;DHT22;5939;56.522;14.950;2023-03-12T01:27:00;-0.10;99.90
11764;DHT22;5939;56.522;14.950;2023-03-12T01:29:26;-0.10;99.90
11764;DHT22;5939;56.522;14.950;2023-03-12T01:31:51;-0.10;99.90
11764;DHT22;5939;56.522;14.950;2023-03-12T01:34:17;-0.10;99.90
11764;DHT22;5939;56.522;14.950;2023-03-12T01:36:43;-0.10;99.90
11764;DHT22;5939;56.522;14.950;2023-03-12T01:39:10;-0.10;99.90
11764;DHT22;5939;56.522;14.950;2023-03-12T01:41:36;-0.10;99.90
11764;DHT22;5939;56.522;14.950;2023-03-12T01:44:03;-0.10;99.90
11764;DHT22;5939;56.522;14.950;2023-03-12T01:46:36;-0.20;99.90
11764;DHT22;5939;56.522;14.950;2023-03-12T01:49:13;-0.20;99.90
11764;DHT22;5939;56.522;14.950;2023-03-12T01:51:46;-0.20;99.90
11764;DHT22;5939;56.522;14.950;2023-03-12T01:54:28;-0.20;99.90
11764;DHT22;5939;56.522;14.950;2023-03-12T01:56:55;-0.20;99.90
11764;DHT22;5939;56.522;14.950;2023-03-12T01:59:24;-0.20;99.90
11764;DHT22;5939;56.522;14.950;2023-03-12T02:01:50;-0.20;99.90
11764;DHT22;5939;56.522;14.950;2023-03-12T02:04:18;-0.20;99.90
11764;DHT22;5939;56.522;14.950;2023-03-12T02:06:54;-0.20;99.90
11764;DHT22;5939;56.522;14.950;2023-03-12T02:09:22;-0.30;99.90
11764;DHT22;5939;56.522;14.950;2023-03-12T02:11:49;-0.30;99.90
11764;DHT22;5939;56.522;14.950;2023-03-12T02:14:15;-0.30;99.90
11764;DHT22;5939;56.522;14.950;2023-03-12T02:16:40;-0.30;99.90
11764;DHT22;5939;56.522;14.950;2023-03-12T02:19:34;-0.30;99.90
11764;DHT22;5939;56.522;14.950;2023-03-12T02:21:57;-0.30;99.90
11764;DHT22;5939;56.522;14.950;2023-03-12T02:24:53;-0.30;99.90
11764;DHT22;5939;56.522;14.950;2023-03-12T02:27:22;-0.30;99.90
11764;DHT22;5939;56.522;14.950;2023-03-12T02:29:48;-0.40;99.90
11764;DHT22;5939;56.522;14.950;2023-03-12T02:32:26;-0.40;99.90
11764;DHT22;5939;56.522;14.950;2023-03-12T02:34:53;-0.30;99.90
11764;DHT22;5939;56.522;14.950;2023-03-12T02:37:20;-0.40;99.90
11764;DHT22;5939;56.522;14.950;2023-03-12T02:39:52;-0.40;99.90
11764;DHT22;5939;56.522;14.950;2023-03-12T02:42:21;-0.40;99.90
11764;DHT22;5939;56.522;14.950;2023-03-12T02:44:47;-0.40;99.90
11764;DHT22;5939;56.522;14.950;2023-03-12T02:47:12;-0.40;99.90
11764;DHT22;5939;56.522;14.950;2023-03-12T02:49:38;-0.40;99.90
11764;DHT22;5939;56.522;14.950;2023-03-12T02:52:03;-0.50;99.90
11764;DHT22;5939;56.522;14.950;2023-03-12T02:54:29;-0.40;99.90
11764;DHT22;5939;56.522;14.950;2023-03-12T02:56:55;-0.40;99.90
11764;DHT22;5939;56.522;14.950;2023-03-12T02:59:22;-0.50;99.90
11764;DHT22;5939;56.522;14.950;2023-03-12T03:01:55;-0.50;99.90
11764;DHT22;5939;56.522;14.950;2023-03-12T03:04:23;-0.50;99.90
11764;DHT22;5939;56.522;14.950;2023-03-12T03:06:49;-0.50;99.90
11764;DHT22;5939;56.522;14.950;2023-03-12T03:09:15;-0.50;99.90
11764;DHT22;5939;56.522;14.950;2023-03-12T03:11:40;-0.50;99.90
11764;DHT22;5939;56.522;14.950;2023-03-12T03:14:06;-0.50;99.90
11764;DHT22;5939;56.522;14.950;2023-03-12T03:16:33;-0.60;99.90
11764;DHT22;5939;56.522;14.950;2023-03-12T03:18:59;-0.50;99.90
11764;DHT22;5939;56.522;14.950;2023-03-12T03:21:24;-0.60;99.90
11764;DHT22;5939;56.522;14.950;2023-03-12T03:23:50;-0.60;99.90
11764;DHT22;5939;56.522;14.950;2023-03-12T03:26:19;-0.60;99.90
11764;DHT22;5939;56.522;14.950;2023-03-12T03:28:45;-0.60;99.90
11764;DHT22;5939;56.522;14.950;2023-03-12T03:31:11;-0.60;99.90
11764;DHT22;5939;56.522;14.950;2023-03-12T03:33:38;-0.60;99.90
11764;DHT22;5939;56.522;14.950;2023-03-12T03:36:04;-0.60;99.90
11764;DHT22;5939;56.522;14.950;2023-03-12T03:38:31;-0.60;99.90
11764;DHT22;5939;56.522;14.950;2023-03-12T03:40:57;-0.60;99.90
11764;DHT22;5939;56.522;14.950;2023-03-12T03:43:23;-0.70;99.90
11764;DHT22;5939;56.522;14.950;2023-03-12T03:45:59;-0.70;99.90
11764;DHT22;5939;56.522;14.950;2023-03-12T03:48:25;-0.70;99.90
11764;DHT22;5939;56.522;14.950;2023-03-12T03:50:51;-0.70;99.90
11764;DHT22;5939;56.522;14.950;2023-03-12T03:53:17;-0.70;99.90
11764;DHT22;5939;56.522;14.950;2023-03-12T03:55:44;-0.70;99.90
11764;DHT22;5939;56.522;14.950;2023-03-12T03:58:09;-0.70;99.90
11764;DHT22;5939;56.522;14.950;2023-03-12T04:00:35;-0.70;99.90
11764;DHT22;5939;56.522;14.950;2023-03-12T04:03:01;-0.70;99.90
11764;DHT22;5939;56.522;14.950;2023-03-12T04:05:26;-0.70;99.90
11764;DHT22;5939;56.522;14.950;2023-03-12T04:07:53;-0.80;99.90
11764;DHT22;5939;56.522;14.950;2023-03-12T04:10:23;-0.80;99.90
11764;DHT22;5939;56.522;14.950;2023-03-12T04:12:49;-0.70;99.90
11764;DHT22;5939;56.522;14.950;2023-03-12T04:15:16;-0.80;99.90
11764;DHT22;5939;56.522;14.950;2023-03-12T04:17:42;-0.80;99.90
11764;DHT22;5939;56.522;14.950;2023-03-12T04:20:08;-0.80;99.90
11764;DHT22;5939;56.522;14.950;2023-03-12T04:22:35;-0.80;99.90
11764;DHT22;5939;56.522;14.950;2023-03-12T04:25:01;-0.80;99.90
11764;DHT22;5939;56.522;14.950;2023-03-12T04:27:27;-0.80;99.90
11764;DHT22;5939;56.522;14.950;2023-03-12T04:29:52;-0.80;99.90
11764;DHT22;5939;56.522;14.950;2023-03-12T04:32:18;-0.80;99.90
11764;DHT22;5939;56.522;14.950;2023-03-12T04:34:44;-0.80;99.90
11764;DHT22;5939;56.522;14.950;2023-03-12T04:37:10;-0.80;99.90
11764;DHT22;5939;56.522;14.950;2023-03-12T04:39:39;-0.90;99.90
11764;DHT22;5939;56.522;14.950;2023-03-12T04:42:05;-0.90;99.90
11764;DHT22;5939;56.522;14.950;2023-03-12T04:44:31;-0.90;99.90
11764;DHT22;5939;56.522;14.950;2023-03-12T04:46:57;-0.90;99.90
11764;DHT22;5939;56.522;14.950;2023-03-12T04:49:23;-0.90;99.90
11764;DHT22;5939;56.522;14.950;2023-03-12T04:51:48;-0.90;99.90
11764;DHT22;5939;56.522;14.950;2023-03-12T04:54:14;-0.90;99.90
11764;DHT22;5939;56.522;14.950;2023-03-12T04:56:39;-0.90;99.90
11764;DHT22;5939;56.522;14.950;2023-03-12T04:59:05;-0.90;99.90
11764;DHT22;5939;56.522;14.950;2023-03-12T05:01:34;-0.90;99.90
11764;DHT22;5939;56.522;14.950;2023-03-12T05:04:00;-1.00;99.90
11764;DHT22;5939;56.522;14.950;2023-03-12T05:06:27;-1.00;99.90
11764;DHT22;5939;56.522;14.950;2023-03-12T05:08:53;-1.00;99.90
11764;DHT22;5939;56.522;14.950;2023-03-12T05:11:19;-1.00;99.90
11764;DHT22;5939;56.522;14.950;2023-03-12T05:13:45;-1.00;99.90
11764;DHT22;5939;56.522;14.950;2023-03-12T05:16:13;-1.00;99.90
11764;DHT22;5939;56.522;14.950;2023-03-12T05:18:40;-1.00;99.90
11764;DHT22;5939;56.522;14.950;2023-03-12T05:21:08;-1.00;99.90
11764;DHT22;5939;56.522;14.950;2023-03-12T05:23:36;-1.00;99.90
11764;DHT22;5939;56.522;14.950;2023-03-12T05:26:13;-1.00;99.90
11764;DHT22;5939;56.522;14.950;2023-03-12T05:28:39;-1.00;99.90
11764;DHT22;5939;56.522;14.950;2023-03-12T05:31:08;-1.00;99.90
11764;DHT22;5939;56.522;14.950;2023-03-12T05:33:35;-1.00;99.90
11764;DHT22;5939;56.522;14.950;2023-03-12T05:36:01;-1.00;99.90
11764;DHT22;5939;56.522;14.950;2023-03-12T05:38:26;-1.00;99.90
11764;DHT22;5939;56.522;14.950;2023-03-12T05:40:54;-1.10;99.90
11764;DHT22;5939;56.522;14.950;2023-03-12T05:43:20;-1.10;99.90
11764;DHT22;5939;56.522;14.950;2023-03-12T05:45:46;-1.10;99.90
11764;DHT22;5939;56.522;14.950;2023-03-12T05:48:11;-1.10;99.90
11764;DHT22;5939;56.522;14.950;2023-03-12T05:50:37;-1.10;99.90
11764;DHT22;5939;56.522;14.950;2023-03-12T05:53:03;-1.10;99.90
11764;DHT22;5939;56.522;14.950;2023-03-12T05:55:28;-1.10;99.90
11764;DHT22;5939;56.522;14.950;2023-03-12T05:57:54;-1.10;99.90
11764;DHT22;5939;56.522;14.950;2023-03-12T06:00:20;-1.10;99.90
11764;DHT22;5939;56.522;14.950;2023-03-12T06:02:46;-1.10;99.90
11764;DHT22;5939;56.522;14.950;2023-03-12T06:05:12;-1.10;99.90
11764;DHT22;5939;56.522;14.950;2023-03-12T06:07:38;-1.10;99.90
11764;DHT22;5939;56.522;14.950;2023-03-12T06:10:04;-1.10;99.90
11764;DHT22;5939;56.522;14.950;2023-03-12T06:12:29;-1.10;99.90
11764;DHT22;5939;56.522;14.950;2023-03-12T06:14:56;-1.10;99.90
11764;DHT22;5939;56.522;14.950;2023-03-12T06:17:22;-1.10;99.90
11764;DHT22;5939;56.522;14.950;2023-03-12T06:19:51;-1.10;99.90
11764;DHT22;5939;56.522;14.950;2023-03-12T06:22:18;-1.10;99.90
11764;DHT22;5939;56.522;14.950;2023-03-12T06:24:43;-1.10;99.90
11764;DHT22;5939;56.522;14.950;2023-03-12T06:27:12;-1.10;99.90
11764;DHT22;5939;56.522;14.950;2023-03-12T06:29:38;-1.10;99.90
11764;DHT22;5939;56.522;14.950;2023-03-12T06:32:04;-1.10;99.90
11764;DHT22;5939;56.522;14.950;2023-03-12T06:34:29;-1.00;99.90
11764;DHT22;5939;56.522;14.950;2023-03-12T06:36:55;-1.00;99.90
11764;DHT22;5939;56.522;14.950;2023-03-12T06:39:21;-1.00;99.90
11764;DHT22;5939;56.522;14.950;2023-03-12T06:41:46;-1.00;99.90
11764;DHT22;5939;56.522;14.950;2023-03-12T06:44:12;-0.90;99.90
11764;DHT22;5939;56.522;14.950;2023-03-12T06:46:38;-0.90;99.90
11764;DHT22;5939;56.522;14.950;2023-03-12T06:49:03;-0.90;99.90
11764;DHT22;5939;56.522;14.950;2023-03-12T06:51:29;-0.80;99.90
11764;DHT22;5939;56.522;14.950;2023-03-12T06:53:55;-0.70;99.90
11764;DHT22;5939;56.522;14.950;2023-03-12T06:56:21;-0.70;99.90
11764;DHT22;5939;56.522;14.950;2023-03-12T06:58:46;-0.60;99.90
11764;DHT22;5939;56.522;14.950;2023-03-12T07:01:12;-0.50;99.90
11764;DHT22;5939;56.522;14.950;2023-03-12T07:03:37;-0.40;99.90
11764;DHT22;5939;56.522;14.950;2023-03-12T07:06:03;-0.30;99.90
11764;DHT22;5939;56.522;14.950;2023-03-12T07:08:29;-0.20;99.90
11764;DHT22;5939;56.522;14.950;2023-03-12T07:10:56;-0.10;99.90
11764;DHT22;5939;56.522;14.950;2023-03-12T07:13:22;0.00;99.90
11764;DHT22;5939;56.522;14.950;2023-03-12T07:15:48;0.10;99.90
11764;DHT22;5939;56.522;14.950;2023-03-12T07:18:14;0.20;99.90
11764;DHT22;5939;56.522;14.950;2023-03-12T07:20:42;0.30;99.90
11764;DHT22;5939;56.522;14.950;2023-03-12T07:23:08;0.40;99.90
11764;DHT22;5939;56.522;14.950;2023-03-12T07:25:39;0.50;99.90
11764;DHT22;5939;56.522;14.950;2023-03-12T07:28:06;0.60;99.90
11764;DHT22;5939;56.522;14.950;2023-03-12T07:30:32;0.70;99.90
11764;DHT22;5939;56.522;14.950;2023-03-12T07:33:06;0.80;99.90
11764;DHT22;5939;56.522;14.950;2023-03-12T07:35:32;0.90;99.90
11764;DHT22;5939;56.522;14.950;2023-03-12T07:37:59;1.00;99.90
11764;DHT22;5939;56.522;14.950;2023-03-12T07:40:25;1.10;99.90
11764;DHT22;5939;56.522;14.950;2023-03-12T07:42:51;1.20;99.90
11764;DHT22;5939;56.522;14.950;2023-03-12T07:45:18;1.30;99.90
11764;DHT22;5939;56.522;14.950;2023-03-12T07:47:44;1.40;99.90
11764;DHT22;5939;56.522;14.950;2023-03-12T07:50:10;1.50;99.90
11764;DHT22;5939;56.522;14.950;2023-03-12T07:52:35;1.60;99.90
11764;DHT22;5939;56.522;14.950;2023-03-12T07:55:01;1.70;99.90
11764;DHT22;5939;56.522;14.950;2023-03-12T07:57:27;1.80;99.90
11764;DHT22;5939;56.522;14.950;2023-03-12T07:59:52;1.90;99.90
11764;DHT22;5939;56.522;14.950;2023-03-12T08:02:18;2.00;99.90
11764;DHT22;5939;56.522;14.950;2023-03-12T08:04:45;2.10;99.90
11764;DHT22;5939;56.522;14.950;2023-03-12T08:07:10;2.30;99.90
11764;DHT22;5939;56.522;14.950;2023-03-12T08:09:38;2.40;99.90
11764;DHT22;5939;56.522;14.950;2023-03-12T08:12:04;2.50;99.90
11764;DHT22;5939;56.522;14.950;2023-03-12T08:14:30;2.60;99.90
11764;DHT22;5939;56.522;14.950;2023-03-12T08:16:57;2.70;99.90
11764;DHT22;5939;56.522;14.950;2023-03-12T08:19:23;2.80;99.90
11764;DHT22;5939;56.522;14.950;2023-03-12T08:21:49;2.90;99.90
11764;DHT22;5939;56.522;14.950;2023-03-12T08:24:17;3.00;99.90
11764;DHT22;5939;56.522;14.950;2023-03-12T08:26:43;3.20;99.90
11764;DHT22;5939;56.522;14.950;2023-03-12T08:29:09;3.30;99.90
11764;DHT22;5939;56.522;14.950;2023-03-12T08:31:35;3.40;99.90
11764;DHT22;5939;56.522;14.950;2023-03-12T08:34:01;3.50;99.90
11764;DHT22;5939;56.522;14.950;2023-03-12T08:36:27;3.60;99.90
11764;DHT22;5939;56.522;14.950;2023-03-12T08:38:53;3.70;99.90
11764;DHT22;5939;56.522;14.950;2023-03-12T08:41:18;3.80;99.90
11764;DHT22;5939;56.522;14.950;2023-03-12T08:43:44;3.90;99.90
11764;DHT22;5939;56.522;14.950;2023-03-12T08:46:11;4.00;99.90
11764;DHT22;5939;56.522;14.950;2023-03-12T08:48:37;4.10;99.90
11764;DHT22;5939;56.522;14.950;2023-03-12T08:51:03;4.20;99.90
11764;DHT22;5939;56.522;14.950;2023-03-12T08:53:31;4.30;99.90
11764;DHT22;5939;56.522;14.950;2023-03-12T08:55:57;4.40;99.90
11764;DHT22;5939;56.522;14.950;2023-03-12T08:58:23;4.50;99.90
11764;DHT22;5939;56.522;14.950;2023-03-12T09:00:50;4.60;99.90
11764;DHT22;5939;56.522;14.950;2023-03-12T09:03:17;4.70;99.90
11764;DHT22;5939;56.522;14.950;2023-03-12T09:05:43;4.80;99.90
11764;DHT22;5939;56.522;14.950;2023-03-12T09:08:10;4.90;99.90
11764;DHT22;5939;56.522;14.950;2023-03-12T09:10:36;5.00;99.90
11764;DHT22;5939;56.522;14.950;2023-03-12T09:13:02;5.10;99.90
11764;DHT22;5939;56.522;14.950;2023-03-12T09:15:28;5.20;99.90
11764;DHT22;5939;56.522;14.950;2023-03-12T09:17:54;5.30;99.90
11764;DHT22;5939;56.522;14.950;2023-03-12T09:20:20;5.30;99.90
11764;DHT22;5939;56.522;14.950;2023-03-12T09:22:46;5.40;99.90
11764;DHT22;5939;56.522;14.950;2023-03-12T09:25:12;5.50;99.90
11764;DHT22;5939;56.522;14.950;2023-03-12T09:27:43;5.60;99.90
11764;DHT22;5939;56.522;14.950;2023-03-12T09:30:14;5.70;99.90
11764;DHT22;5939;56.522;14.950;2023-03-12T09:32:41;5.70;99.90
11764;DHT22;5939;56.522;14.950;2023-03-12T09:35:08;5.80;99.90
11764;DHT22;5939;56.522;14.950;2023-03-12T09:37:34;5.80;99.90
11764;DHT22;5939;56.522;14.950;2023-03-12T09:40:00;5.90;99.90
11764;DHT22;5939;56.522;14.950;2023-03-12T09:45:30;6.10;99.90
11764;DHT22;5939;56.522;14.950;2023-03-12T09:47:59;6.10;99.90
11764;DHT22;5939;56.522;14.950;2023-03-12T09:50:29;6.20;99.90
11764;DHT22;5939;56.522;14.950;2023-03-12T09:55:40;6.40;99.90
11764;DHT22;5939;56.522;14.950;2023-03-12T09:58:21;6.40;99.90
11764;DHT22;5939;56.522;14.950;2023-03-12T10:00:52;6.50;99.90
11764;DHT22;5939;56.522;14.950;2023-03-12T10:06:19;6.60;99.90
11764;DHT22;5939;56.522;14.950;2023-03-12T10:09:06;6.70;99.90
11764;DHT22;5939;56.522;14.950;2023-03-12T10:11:56;6.80;99.90
11764;DHT22;5939;56.522;14.950;2023-03-12T10:15:00;6.80;99.90
11764;DHT22;5939;56.522;14.950;2023-03-12T10:26:13;7.20;99.90
11764;DHT22;5939;56.522;14.950;2023-03-12T10:28:54;7.30;99.90
11764;DHT22;5939;56.522;14.950;2023-03-12T10:31:28;7.30;99.90
11764;DHT22;5939;56.522;14.950;2023-03-12T10:33:58;7.40;99.90
11764;DHT22;5939;56.522;14.950;2023-03-12T10:36:27;7.50;99.90
11764;DHT22;5939;56.522;14.950;2023-03-12T10:38:53;7.50;99.90
11764;DHT22;5939;56.522;14.950;2023-03-12T10:41:24;7.60;99.90
11764;DHT22;5939;56.522;14.950;2023-03-12T10:43:50;7.60;99.90
11764;DHT22;5939;56.522;14.950;2023-03-12T10:49:22;7.70;99.90
11764;DHT22;5939;56.522;14.950;2023-03-12T10:54:29;7.90;99.90
11764;DHT22;5939;56.522;14.950;2023-03-12T10:56:55;7.90;99.90
11764;DHT22;5939;56.522;14.950;2023-03-12T10:59:24;8.00;99.90
11764;DHT22;5939;56.522;14.950;2023-03-12T11:01:51;8.10;99.90
11764;DHT22;5939;56.522;14.950;2023-03-12T11:04:26;8.10;99.90
11764;DHT22;5939;56.522;14.950;2023-03-12T11:07:18;8.20;99.90
11764;DHT22;5939;56.522;14.950;2023-03-12T11:09:45;8.20;99.90
11764;DHT22;5939;56.522;14.950;2023-03-12T11:12:29;8.30;99.90
11764;DHT22;5939;56.522;14.950;2023-03-12T11:14:56;8.30;99.90
11764;DHT22;5939;56.522;14.950;2023-03-12T11:17:24;8.40;99.90
11764;DHT22;5939;56.522;14.950;2023-03-12T11:19:50;8.50;99.90
11764;DHT22;5939;56.522;14.950;2023-03-12T11:22:29;8.50;99.90
11764;DHT22;5939;56.522;14.950;2023-03-12T11:25:05;8.50;99.90
11764;DHT22;5939;56.522;14.950;2023-03-12T11:27:44;8.60;99.90
11764;DHT22;5939;56.522;14.950;2023-03-12T11:30:15;8.60;99.90
11764;DHT22;5939;56.522;14.950;2023-03-12T11:32:47;8.70;99.90
11764;DHT22;5939;56.522;14.950;2023-03-12T11:35:15;8.80;99.90
11764;DHT22;5939;56.522;14.950;2023-03-12T11:46:20;8.90;99.90
11764;DHT22;5939;56.522;14.950;2023-03-12T12:02:55;9.00;99.90
11764;DHT22;5939;56.522;14.950;2023-03-12T12:08:29;9.00;99.90
11764;DHT22;5939;56.522;14.950;2023-03-12T12:11:18;8.90;99.90
11764;DHT22;5939;56.522;14.950;2023-03-12T12:27:27;8.70;99.90
11764;DHT22;5939;56.522;14.950;2023-03-12T12:33:22;8.60;99.90
11764;DHT22;5939;56.522;14.950;2023-03-12T12:35:35;8.50;99.90
11764;DHT22;5939;56.522;14.950;2023-03-12T12:40:44;8.40;99.90
11764;DHT22;5939;56.522;14.950;2023-03-12T12:43:22;8.30;99.90
11764;DHT22;5939;56.522;14.950;2023-03-12T12:45:54;8.20;99.90
11764;DHT22;5939;56.522;14.950;2023-03-12T12:48:31;8.20;99.90
11764;DHT22;5939;56.522;14.950;2023-03-12T12:50:59;8.10;99.90
11764;DHT22;5939;56.522;14.950;2023-03-12T12:56:24;7.90;99.90
11764;DHT22;5939;56.522;14.950;2023-03-12T13:01:33;7.80;99.90
11764;DHT22;5939;56.522;14.950;2023-03-12T13:04:10;7.70;99.90
11764;DHT22;5939;56.522;14.950;2023-03-12T13:09:34;7.60;99.90
11764;DHT22;5939;56.522;14.950;2023-03-12T13:12:06;7.50;99.90
11764;DHT22;5939;56.522;14.950;2023-03-12T13:14:39;7.50;99.90
11764;DHT22;5939;56.522;14.950;2023-03-12T13:17:26;7.40;99.90
11764;DHT22;5939;56.522;14.950;2023-03-12T13:19:59;7.40;99.90
11764;DHT22;5939;56.522;14.950;2023-03-12T13:27:39;7.30;99.90
11764;DHT22;5939;56.522;14.950;2023-03-12T13:45:33;7.00;99.90
11764;DHT22;5939;56.522;14.950;2023-03-12T13:48:11;7.00;99.90
11764;DHT22;5939;56.522;14.950;2023-03-12T13:50:47;7.00;99.90
11764;DHT22;5939;56.522;14.950;2023-03-12T13:53:41;6.90;99.90
11764;DHT22;5939;56.522;14.950;2023-03-12T13:56:17;6.90;99.90
11764;DHT22;5939;56.522;14.950;2023-03-12T13:58:49;6.90;99.90
11764;DHT22;5939;56.522;14.950;2023-03-12T14:01:19;6.90;99.90
11764;DHT22;5939;56.522;14.950;2023-03-12T14:03:52;6.80;99.90
11764;DHT22;5939;56.522;14.950;2023-03-12T14:06:22;6.80;99.90
11764;DHT22;5939;56.522;14.950;2023-03-12T14:09:16;6.80;99.90
11764;DHT22;5939;56.522;14.950;2023-03-12T14:17:25;6.70;99.90
11764;DHT22;5939;56.522;14.950;2023-03-12T14:20:04;6.70;99.90
11764;DHT22;5939;56.522;14.950;2023-03-12T14:22:36;6.70;99.90
11764;DHT22;5939;56.522;14.950;2023-03-12T14:25:31;6.60;99.90
11764;DHT22;5939;56.522;14.950;2023-03-12T14:27:59;6.60;99.90
11764;DHT22;5939;56.522;14.950;2023-03-12T14:33:12;6.50;99.90
11764;DHT22;5939;56.522;14.950;2023-03-12T14:36:11;6.50;99.90
11764;DHT22;5939;56.522;14.950;2023-03-12T14:38:42;6.50;99.90
11764;DHT22;5939;56.522;14.950;2023-03-12T14:43:50;6.50;99.90
11764;DHT22;5939;56.522;14.950;2023-03-12T14:46:21;6.40;99.90
11764;DHT22;5939;56.522;14.950;2023-03-12T14:48:52;6.40;99.90
11764;DHT22;5939;56.522;14.950;2023-03-12T14:51:25;6.40;99.90
11764;DHT22;5939;56.522;14.950;2023-03-12T14:53:52;6.40;99.90
11764;DHT22;5939;56.522;14.950;2023-03-12T14:56:26;6.30;99.90
11764;DHT22;5939;56.522;14.950;2023-03-12T14:58:55;6.30;99.90
11764;DHT22;5939;56.522;14.950;2023-03-12T15:01:25;6.30;99.90
11764;DHT22;5939;56.522;14.950;2023-03-12T15:04:17;6.30;99.90
11764;DHT22;5939;56.522;14.950;2023-03-12T15:06:46;6.30;99.90
11764;DHT22;5939;56.522;14.950;2023-03-12T15:09:18;6.30;99.90
11764;DHT22;5939;56.522;14.950;2023-03-12T15:11:52;6.20;99.90
11764;DHT22;5939;56.522;14.950;2023-03-12T15:14:19;6.30;99.90
11764;DHT22;5939;56.522;14.950;2023-03-12T15:16:46;6.20;99.90
11764;DHT22;5939;56.522;14.950;2023-03-12T15:19:15;6.20;99.90
11764;DHT22;5939;56.522;14.950;2023-03-12T15:21:42;6.20;99.90
11764;DHT22;5939;56.522;14.950;2023-03-12T15:24:11;6.10;99.90
11764;DHT22;5939;56.522;14.950;2023-03-12T15:26:38;6.10;99.90
11764;DHT22;5939;56.522;14.950;2023-03-12T15:31:46;6.20;99.90
11764;DHT22;5939;56.522;14.950;2023-03-12T15:34:25;6.10;99.90
11764;DHT22;5939;56.522;14.950;2023-03-12T15:36:51;6.10;99.90
11764;DHT22;5939;56.522;14.950;2023-03-12T15:41:46;6.00;99.90
11764;DHT22;5939;56.522;14.950;2023-03-12T15:44:27;6.10;99.90
11764;DHT22;5939;56.522;14.950;2023-03-12T15:47:03;6.10;99.90
11764;DHT22;5939;56.522;14.950;2023-03-12T15:49:34;6.00;99.90
11764;DHT22;5939;56.522;14.950;2023-03-12T15:52:05;6.00;99.90
11764;DHT22;5939;56.522;14.950;2023-03-12T15:54:31;6.00;99.90
11764;DHT22;5939;56.522;14.950;2023-03-12T15:57:20;6.00;99.90
11764;DHT22;5939;56.522;14.950;2023-03-12T16:00:37;6.00;99.90
11764;DHT22;5939;56.522;14.950;2023-03-12T16:05:34;5.90;99.90
11764;DHT22;5939;56.522;14.950;2023-03-12T16:08:47;5.90;99.90
11764;DHT22;5939;56.522;14.950;2023-03-12T16:10:50;5.90;99.90
11764;DHT22;5939;56.522;14.950;2023-03-12T16:13:19;5.90;99.90
11764;DHT22;5939;56.522;14.950;2023-03-12T16:15:45;5.90;99.90
11764;DHT22;5939;56.522;14.950;2023-03-12T16:18:14;5.90;99.90
11764;DHT22;5939;56.522;14.950;2023-03-12T16:20:40;5.90;99.90
11764;DHT22;5939;56.522;14.950;2023-03-12T16:23:06;5.80;99.90
11764;DHT22;5939;56.522;14.950;2023-03-12T16:25:31;5.80;99.90
11764;DHT22;5939;56.522;14.950;2023-03-12T16:28:01;5.80;99.90
11764;DHT22;5939;56.522;14.950;2023-03-12T16:30:30;5.80;99.90
11764;DHT22;5939;56.522;14.950;2023-03-12T16:32:57;5.80;99.90
11764;DHT22;5939;56.522;14.950;2023-03-12T16:35:23;5.80;99.90
11764;DHT22;5939;56.522;14.950;2023-03-12T16:37:49;5.80;99.90
11764;DHT22;5939;56.522;14.950;2023-03-12T16:40:15;5.80;99.90
11764;DHT22;5939;56.522;14.950;2023-03-12T16:42:44;5.70;99.90
11764;DHT22;5939;56.522;14.950;2023-03-12T16:45:13;5.70;99.90
11764;DHT22;5939;56.522;14.950;2023-03-12T16:47:40;5.70;99.90
11764;DHT22;5939;56.522;14.950;2023-03-12T16:50:24;5.70;99.90
11764;DHT22;5939;56.522;14.950;2023-03-12T16:52:50;5.70;99.90
11764;DHT22;5939;56.522;14.950;2023-03-12T16:55:21;5.60;99.90
11764;DHT22;5939;56.522;14.950;2023-03-12T16:57:53;5.60;99.90
11764;DHT22;5939;56.522;14.950;2023-03-12T17:00:21;5.60;99.90
11764;DHT22;5939;56.522;14.950;2023-03-12T17:02:48;5.60;99.90
11764;DHT22;5939;56.522;14.950;2023-03-12T17:05:14;5.60;99.90
11764;DHT22;5939;56.522;14.950;2023-03-12T17:07:40;5.60;99.90
11764;DHT22;5939;56.522;14.950;2023-03-12T17:10:08;5.50;99.90
11764;DHT22;5939;56.522;14.950;2023-03-12T17:12:37;5.50;99.90
11764;DHT22;5939;56.522;14.950;2023-03-12T17:15:16;5.50;99.90
11764;DHT22;5939;56.522;14.950;2023-03-12T17:17:43;5.50;99.90
11764;DHT22;5939;56.522;14.950;2023-03-12T17:20:10;5.50;99.90
11764;DHT22;5939;56.522;14.950;2023-03-12T17:22:38;5.40;99.90
11764;DHT22;5939;56.522;14.950;2023-03-12T17:25:05;5.40;99.90
11764;DHT22;5939;56.522;14.950;2023-03-12T17:27:31;5.40;99.90
11764;DHT22;5939;56.522;14.950;2023-03-12T17:29:56;5.30;99.90
11764;DHT22;5939;56.522;14.950;2023-03-12T17:32:22;5.40;99.90
11764;DHT22;5939;56.522;14.950;2023-03-12T17:34:54;5.30;99.90
11764;DHT22;5939;56.522;14.950;2023-03-12T17:37:21;5.30;99.90
11764;DHT22;5939;56.522;14.950;2023-03-12T17:39:47;5.30;99.90
11764;DHT22;5939;56.522;14.950;2023-03-12T17:42:13;5.30;99.90
11764;DHT22;5939;56.522;14.950;2023-03-12T17:44:38;5.20;99.90
11764;DHT22;5939;56.522;14.950;2023-03-12T17:47:04;5.20;99.90